Flight Track Log - Related Links

Times and Time Zones

All times are in EDT time to prevent confusion due to time zone crossing. See the DAL268 flight status page for this flight to view local times or setup timezone preferences in your user account.

Time Position Orientation Groundspeed Altitude Reporting Facility
EDT Latitude Longitude Course Direction KTS MPH feet Rate Location/Type
Sun 12:16:42 AM 40.6160 -73.7900 211° Southwest 170 196 900  Level FlightAware ADS-B
Sun 12:17:07 AM 40.5970 -73.8030 207° Southwest 187 215 1,600 1,350 Climbing FlightAware ADS-B
Sun 12:17:22 AM 40.5840 -73.8070 193° South 214 246 1,800 800 Climbing FlightAware ADS-B
Sun 12:17:52 AM 40.5540 -73.7970 166° South 252 290 2,200 873 Climbing FlightAware ADS-B
Sun 12:18:17 AM 40.5300 -73.7710 141° Southeast 280 322 2,600 1,050 Climbing FlightAware ADS-B
Sun 12:18:32 AM 40.5200 -73.7460 118° Southeast 296 341 2,900 1,600 Climbing FlightAware ADS-B
Sun 12:18:47 AM 40.5160 -73.7210 102° East 304 350 3,400 2,000 Climbing FlightAware ADS-B
Sun 12:19:17 AM 40.5300 -73.6730 69° East 311 358 4,400 2,100 Climbing FlightAware ADS-B
Sun 12:19:27 AM 40.5420 -73.6590 42° Northeast 315 362 4,800 2,880 Climbing FlightAware ADS-B
Sun 12:19:42 AM 40.5652 -73.6400 32° Northeast 314 361 5,600 2,516 Climbing FlightAware ADS-B
Sun 12:19:58 AM 40.5846 -73.6257 29° Northeast 321 369 6,100 2,129 Climbing FlightAware ADS-B
Sun 12:20:13 AM 40.6041 -73.6115 29° Northeast 321 369 6,700 2,400 Climbing FlightAware ADS-B
Sun 12:20:28 AM 40.6248 -73.5967 28° Northeast 323 372 7,300 2,294 Climbing FlightAware ADS-B
Sun 12:20:47 AM 40.6509 -73.5811 24° Northeast 327 376 8,000 2,233 Climbing FlightAware ADS-B
Sun 12:21:11 AM 40.6835 -73.5619 24° Northeast 329 379 8,900 2,250 Climbing FlightAware ADS-B
Sun 12:21:27 AM 40.7066 -73.5483 24° Northeast 336 387 9,500 2,125 Climbing FlightAware ADS-B
Sun 12:21:59 AM 40.7524 -73.5205 25° Northeast 344 396 10,600 1,425 Climbing FlightAware ADS-B
Sun 12:22:47 AM 40.8230 -73.4780 24° Northeast 381 438 11,400 1,023 Climbing FlightAware ADS-B
Sun 12:23:27 AM 40.8910 -73.4360 25° Northeast 418 481 12,100 1,425 Climbing FlightAware ADS-B
Sun 12:24:07 AM 40.9640 -73.3920 24° Northeast 437 503 13,300 1,906 Climbing FlightAware ADS-B
Sun 12:24:52 AM 41.0460 -73.3430 24° Northeast 451 519 14,800 2,047 Climbing FlightAware ADS-B
Sun 12:25:32 AM 41.1220 -73.2900 28° Northeast 468 539 16,200 2,118 Climbing FlightAware ADS-B
Sun 12:26:17 AM 41.1960 -73.2050 41° Northeast 477 549 17,800 2,118 Climbing FlightAware ADS-B
Sun 12:26:57 AM 41.2660 -73.1270 40° Northeast 483 556 19,200 1,275 Climbing FlightAware ADS-B
Sun 12:27:37 AM 41.3290 -73.0590 39° Northeast 488 562 19,500 1,275 Climbing FlightAware ADS-B
Sun 12:28:17 AM 41.4010 -72.9760 41° Northeast 495 570 20,900 1,768 Climbing FlightAware ADS-B
Sun 12:29:12 AM 41.4920 -72.8640 43° Northeast 505 581 22,300 1,980 Climbing FlightAware ADS-B
Sun 12:29:57 AM 41.5790 -72.7550 43° Northeast 521 600 24,200 1,800 Climbing FlightAware ADS-B
Sun 12:30:42 AM 41.6520 -72.6550 46° Northeast 533 613 25,000 600 Climbing FlightAware ADS-B
Sun 12:31:17 AM 41.6980 -72.5720 53° Northeast 533 613 25,000  Level FlightAware ADS-B
Sun 12:32:07 AM 41.7610 -72.4600 53° Northeast 533 613 25,000  Level FlightAware ADS-B
Sun 12:32:47 AM 41.8120 -72.3700 53° Northeast 533 613 25,000  Level FlightAware ADS-B
Sun 12:33:27 AM 41.8620 -72.2810 53° Northeast 533 613 25,000  Level FlightAware ADS-B
Sun 12:34:07 AM 41.9130 -72.1910 53° Northeast 533 613 25,000 3,000 Level FlightAware ADS-B
Sun 12:34:27 AM 41.6690 -72.6190 233° Southwest 29,000 5,143 Climbing FlightAware ADS-B
Sun 12:35:03 AM 42.0031 -71.9092 233° Southwest 566 651 29,800 1,688 Climbing Boston Center
Sun 12:36:03 AM 42.1233 -71.7739 40° Northeast 561 646 31,700 1,550 Climbing Boston Center
Sun 12:37:03 AM 42.2475 -71.6519 36° Northeast 556 640 32,900 500 Climbing Boston Center
Sun 12:38:27 AM 42.4131 -71.4897 36° Northeast 562 647 32,900  Level Boston Center
Sun 12:39:27 AM 42.5658 -71.3350 37° Northeast 567 652 32,900  Level Boston Center
Sun 12:40:27 AM 42.6897 -71.2086 37° Northeast 567 652 32,900 15 Level Boston Center
Sun 12:46:17 AM 43.4110 -70.4560 37° Northeast 562 647 33,000 15 Climbing FlightAware ADS-B
Sun 12:47:02 AM 43.5060 -70.3560 37° Northeast 562 647 33,000  Level FlightAware ADS-B
Sun 12:47:42 AM 43.5880 -70.2680 38° Northeast 563 648 33,000  Level FlightAware ADS-B
Sun 12:48:27 AM 43.6780 -70.1720 38° Northeast 563 648 33,000  Level FlightAware ADS-B
Sun 12:49:07 AM 43.7620 -70.0810 38° Northeast 564 649 33,000 -55 Level FlightAware ADS-B
Sun 12:50:17 AM 43.9060 -69.9280 37° Northeast 565 650 32,900  Descending FlightAware ADS-B
Sun 12:50:57 AM 43.9880 -69.8390 38° Northeast 570 656 33,000  Climbing FlightAware ADS-B
Sun 12:51:42 AM 44.0810 -69.7380 38° Northeast 571 657 32,900  Descending FlightAware ADS-B
Sun 12:52:22 AM 44.1650 -69.6470 38° Northeast 573 659 33,000 71 Climbing FlightAware ADS-B
Sun 12:53:07 AM 44.2610 -69.5420 38° Northeast 575 662 33,000  Level FlightAware ADS-B
Sun 12:53:47 AM 44.3420 -69.4540 38° Northeast 576 663 33,000  Level FlightAware ADS-B
Sun 12:54:27 AM 44.4260 -69.3620 38° Northeast 576 663 33,000  Level FlightAware ADS-B
Sun 12:55:12 AM 44.5230 -69.2540 38° Northeast 575 662 33,000  Level FlightAware ADS-B
Sun 12:56:02 AM 44.6190 -69.1480 38° Northeast 574 661 33,000  Level FlightAware ADS-B
Sun 12:56:47 AM 44.7210 -69.0340 38° Northeast 573 659 33,000  Level FlightAware ADS-B
Sun 12:57:27 AM 44.8030 -68.9410 39° Northeast 577 664 33,000 -71 Level FlightAware ADS-B
Sun 12:58:12 AM 44.8970 -68.8380 38° Northeast 580 667 32,900  Descending FlightAware ADS-B
Sun 12:58:52 AM 44.9770 -68.7450 39° Northeast 581 669 33,000 71 Climbing FlightAware ADS-B
Sun 12:59:37 AM 45.0770 -68.6330 38° Northeast 586 674 33,000  Level FlightAware ADS-B
Sun 01:00:17 AM 45.1620 -68.5370 39° Northeast 587 676 33,000 -71 Level FlightAware ADS-B
Sun 01:01:02 AM 45.2560 -68.4280 39° Northeast 587 676 32,900  Descending FlightAware ADS-B
Sun 01:01:42 AM 45.3400 -68.3340 38° Northeast 585 673 33,000  Climbing FlightAware ADS-B
Sun 01:02:22 AM 45.4220 -68.2400 39° Northeast 584 672 32,900 -71 Descending FlightAware ADS-B
Sun 01:03:07 AM 45.5190 -68.1260 39° Northeast 582 670 32,900 75 Level FlightAware ADS-B
Sun 01:03:42 AM 45.5920 -68.0410 39° Northeast 582 670 33,000 75 Climbing FlightAware ADS-B
Sun 01:04:27 AM 45.6790 -67.9410 39° Northeast 583 671 33,000 -67 Level FlightAware ADS-B
Sun 01:05:12 AM 45.7730 -67.8300 39° Northeast 585 673 32,900  Descending FlightAware ADS-B
Sun 01:05:52 AM 45.8580 -67.7290 40° Northeast 584 672 33,000 75 Climbing FlightAware ADS-B
Sun 01:06:32 AM 45.9420 -67.6280 40° Northeast 582 670 33,000 -75 Level FlightAware ADS-B
Sun 01:07:12 AM 46.0240 -67.5300 40° Northeast 567 652 32,900  Descending FlightAware ADS-B
Sun 01:07:52 AM 46.1010 -67.4400 39° Northeast 569 655 33,000 57 Climbing FlightAware ADS-B
Sun 01:08:57 AM 46.2260 -67.2910 39° Northeast 567 652 33,000  Level FlightAware ADS-B
Sun 01:09:37 AM 46.2950 -67.2090 39° Northeast 567 652 33,000  Level FlightAware ADS-B
Sun 01:10:17 AM 46.3640 -67.1280 39° Northeast 567 652 33,000  Level FlightAware ADS-B
Sun 01:10:57 AM 46.4340 -67.0470 39° Northeast 567 652 33,000  Level FlightAware ADS-B
Sun 01:11:37 AM 46.5030 -66.9650 39° Northeast 567 652 33,000  Level FlightAware ADS-B
Sun 01:12:27 AM 46.5890 -66.8630 39° Northeast 567 652 33,000  Level FlightAware ADS-B
Sun 01:13:07 AM 46.6590 -66.7810 39° Northeast 567 652 33,000  Level FlightAware ADS-B
Sun 01:13:47 AM 46.7280 -66.7000 39° Northeast 567 652 33,000  Level FlightAware ADS-B
Sun 01:14:27 AM 46.7970 -66.6180 39° Northeast 567 652 33,000  Level FlightAware ADS-B
Sun 01:15:07 AM 46.8670 -66.5360 39° Northeast 567 652 33,000  Level FlightAware ADS-B
Sun 01:15:57 AM 46.9530 -66.4330 39° Northeast 567 652 33,000  Level FlightAware ADS-B
Sun 01:16:37 AM 47.0230 -66.3510 39° Northeast 567 652 33,000  Level FlightAware ADS-B
Sun 01:17:17 AM 47.0920 -66.2680 39° Northeast 567 652 33,000  Level FlightAware ADS-B
Sun 01:17:57 AM 47.1610 -66.1860 39° Northeast 567 652 33,000 -92 Level FlightAware ADS-B
Sun 01:18:22 AM 47.3167 -65.9167 39° Northeast 540 621 32,900 -86 Descending Gander Center
Sun 01:19:07 AM 47.4000 -65.8000 43° Northeast 540 621 32,900  Level Moncton Center
Sun 01:20:07 AM 47.5333 -65.6333 40° Northeast 540 621 32,900  Level Moncton Center
Sun 01:21:07 AM 47.6333 -65.5167 38° Northeast 540 621 32,900  Level Moncton Center
Sun 01:22:07 AM 47.7500 -65.3500 44° Northeast 540 621 32,900  Level Moncton Center
Sun 01:23:07 AM 47.8667 -65.2000 41° Northeast 540 621 32,900  Level Moncton Center
Sun 01:24:07 AM 47.9833 -65.0500 41° Northeast 540 621 32,900  Level Moncton Center
Sun 01:25:07 AM 48.0833 -64.9000 45° Northeast 540 621 32,900  Level Moncton Center
Sun 01:26:07 AM 48.2000 -64.7667 37° Northeast 540 621 32,900  Level Moncton Center
Sun 01:27:07 AM 48.3167 -64.6167 41° Northeast 550 633 32,900  Level Moncton Center
Sun 01:28:07 AM 48.4333 -64.4667 40° Northeast 550 633 32,900  Level Moncton Center
Sun 01:29:07 AM 48.5667 -64.3167 37° Northeast 550 633 32,900  Level Moncton Center
Sun 01:30:07 AM 48.6833 -64.2000 33° Northeast 550 633 32,900  Level Moncton Center
Sun 01:31:07 AM 48.8000 -64.0333 43° Northeast 560 644 32,900  Level Moncton Center
Sun 01:32:07 AM 48.9167 -63.9167 33° Northeast 550 633 32,900  Level Moncton Center
Sun 01:33:07 AM 49.0500 -63.7667 36° Northeast 550 633 32,900 150 Level Moncton Center
Sun 01:34:07 AM 49.1667 -63.6000 43° Northeast 550 633 33,200 400 Climbing Moncton Center
Sun 01:34:22 AM 49.2000 -63.5833 18° North 550 633 33,400 640 Climbing Gander Center
Sun 01:35:22 AM 49.3167 -63.4333 40° Northeast 550 633 34,000 250 Climbing Gander Center
Sun 01:36:22 AM 49.4333 -63.2833 40° Northeast 550 633 33,900 -50 Descending Gander Center
Sun 01:37:22 AM 49.5500 -63.1333 40° Northeast 550 633 33,900 50 Level Gander Center
Sun 01:38:22 AM 49.6667 -62.9833 40° Northeast 550 633 34,000 57 Climbing Gander Center
Sun 01:39:07 AM 49.7667 -62.8667 37° Northeast 540 621 34,000  Level Moncton Center
Sun 01:40:07 AM 49.8833 -62.7333 36° Northeast 550 633 34,000  Level Moncton Center
Sun 01:40:22 AM 49.9167 -62.6833 44° Northeast 540 621 34,000 -80 Level Gander Center
Sun 01:41:22 AM 50.0167 -62.5500 41° Northeast 530 610 33,900 -50 Descending Gander Center
Sun 01:42:22 AM 50.1500 -62.4000 36° Northeast 530 610 33,900 50 Level Gander Center
Sun 01:43:22 AM 50.2500 -62.2500 44° Northeast 540 621 34,000 50 Climbing Gander Center
Sun 01:44:22 AM 50.3667 -62.1000 39° Northeast 540 621 34,000 -57 Level Gander Center
Sun 01:45:07 AM 50.4667 -61.9833 37° Northeast 540 621 33,900 -100 Descending Moncton Center
Sun 01:45:22 AM 50.4833 -61.9333 62° Northeast 530 610 33,900 80 Level Gander Center
Sun 01:46:22 AM 50.6000 -61.7833 39° Northeast 540 621 34,000 50 Climbing Gander Center
Sun 01:47:22 AM 50.7167 -61.6333 39° Northeast 550 633 34,000 -57 Level Gander Center
Sun 01:48:07 AM 50.8167 -61.5333 32° Northeast 550 633 33,900 -57 Descending Moncton Center
Sun 01:49:07 AM 50.9333 -61.3667 42° Northeast 540 621 33,900  Level Moncton Center
Sun 01:49:22 AM 50.9500 -61.3333 52° Northeast 540 621 33,900  Level Gander Center
Sun 01:50:22 AM 51.0667 -61.1833 39° Northeast 540 621 33,900 50 Level Gander Center
Sun 01:51:22 AM 51.1667 -61.0500 40° Northeast 540 621 34,000 50 Climbing Gander Center
Sun 01:52:22 AM 51.2833 -60.8833 42° Northeast 530 610 34,000  Level Gander Center
Sun 01:53:22 AM 51.4000 -60.7167 42° Northeast 530 610 34,000 -57 Level Gander Center
Sun 01:54:07 AM 51.4833 -60.6000 41° Northeast 530 610 33,900  Descending Moncton Center
Sun 01:55:07 AM 51.6000 -60.4333 42° Northeast 530 610 34,000  Climbing Moncton Center
Sun 01:56:07 AM 51.7167 -60.2833 39° Northeast 530 610 33,900 -80 Descending Moncton Center
Sun 01:56:22 AM 51.7333 -60.2500 51° Northeast 530 610 33,900 80 Level Gander Center
Sun 01:57:22 AM 51.8500 -60.0833 41° Northeast 530 610 34,000  Climbing Gander Center
Sun 01:58:07 AM 51.9333 -59.9667 41° Northeast 530 610 33,900 -57 Descending Moncton Center
Sun 01:59:07 AM 52.0500 -59.8333 35° Northeast 530 610 33,900  Level Moncton Center
Sun 01:59:22 AM 52.0833 -59.7833 43° Northeast 530 610 33,900 80 Level Gander Center
Sun 02:00:22 AM 52.1833 -59.6167 46° Northeast 530 610 34,000 50 Climbing Gander Center
Sun 02:01:22 AM 52.3000 -59.4500 41° Northeast 530 610 34,000  Level Gander Center
Sun 02:02:22 AM 52.4167 -59.3167 35° Northeast 530 610 34,000  Level Gander Center
Sun 02:03:22 AM 52.5167 -59.1333 48° Northeast 530 610 34,000  Level Gander Center
Sun 02:04:22 AM 52.6167 -58.9667 45° Northeast 540 621 34,000  Level Gander Center
Sun 02:05:07 AM 52.7167 -58.8500 35° Northeast 540 621 34,000 -57 Level Moncton Center
Sun 02:06:07 AM 52.8167 -58.7000 42° Northeast 540 621 33,900 -50 Descending Moncton Center
Sun 02:07:07 AM 52.9333 -58.5167 43° Northeast 540 621 33,900  Level Moncton Center
Sun 02:07:22 AM 52.9667 -58.4833 31° Northeast 540 621 33,900  Level Gander Center
Sun 02:08:07 AM 53.0333 -58.3333 53° Northeast 540 621 33,900  Level Moncton Center
Sun 02:09:07 AM 53.1500 -58.1833 38° Northeast 550 633 33,900  Level Moncton Center
Sun 02:09:22 AM 53.1833 -58.1333 42° Northeast 540 621 33,900 80 Level Gander Center
Sun 02:10:22 AM 53.3000 -57.9500 43° Northeast 540 621 34,000  Climbing Gander Center
Sun 02:11:07 AM 53.3833 -57.8333 40° Northeast 540 621 33,900  Descending Moncton Center
Sun 02:12:07 AM 53.4833 -57.6500 47° Northeast 540 621 34,000  Climbing Moncton Center
Sun 02:13:07 AM 53.6000 -57.4833 40° Northeast 540 621 33,900 -80 Descending Moncton Center
Sun 02:13:22 AM 53.6167 -57.4500 50° Northeast 540 621 33,900 80 Level Gander Center
Sun 02:14:22 AM 53.7333 -57.2667 43° Northeast 540 621 34,000  Climbing Gander Center
Sun 02:15:22 AM 53.8500 -57.0833 43° Northeast 540 621 33,900 -50 Descending Gander Center
Sun 02:16:22 AM 53.9500 -56.9000 47° Northeast 540 621 33,900 50 Level Gander Center
Sun 02:17:22 AM 54.0667 -56.7500 37° Northeast 540 621 34,000  Climbing Gander Center
Sun 02:18:22 AM 54.1500 -56.5667 52° Northeast 540 621 33,900 -50 Descending Gander Center
Sun 02:19:22 AM 54.2833 -56.3833 39° Northeast 540 621 33,900 57 Level Gander Center
Sun 02:20:07 AM 54.3667 -56.2500 43° Northeast 540 621 34,000  Climbing Moncton Center
Sun 02:20:22 AM 54.3833 -56.2000 60° Northeast 540 621 33,900 -80 Descending Gander Center
Sun 02:21:22 AM 54.5000 -56.0167 42° Northeast 550 633 33,900 50 Level Gander Center
Sun 02:22:22 AM 54.6000 -55.8333 47° Northeast 550 633 34,000  Climbing Gander Center
Sun 02:23:22 AM 54.6667 -55.5833 65° Northeast 550 633 33,900  Descending Gander Center
Sun 02:24:22 AM 54.7500 -55.3667 56° Northeast 550 633 34,000  Climbing Gander Center
Sun 02:25:22 AM 54.8000 -55.1333 70° East 550 633 33,900 -50 Descending Gander Center
Sun 02:26:22 AM 54.8667 -54.8667 66° East 560 644 33,900  Level Gander Center
Sun 02:27:07 AM 54.9000 -54.6833 72° East 560 644 33,900 100 Level Moncton Center
Sun 02:27:22 AM 54.9167 -54.6167 66° East 560 644 34,000  Climbing Gander Center
Sun 02:28:22 AM 55.0000 -54.3667 60° Northeast 560 644 33,900  Descending Gander Center
Sun 02:29:22 AM 55.0500 -54.1667 66° East 560 644 34,000  Climbing Gander Center
Sun 02:30:22 AM 55.1167 -53.8833 68° East 560 644 33,900 -50 Descending Gander Center
Sun 02:31:22 AM 55.1667 -53.6667 68° East 560 644 33,900  Level Gander Center
Sun 02:32:22 AM 55.2167 -53.4167 71° East 560 644 33,900 50 Level Gander Center
Sun 02:33:22 AM 55.2833 -53.1500 66° East 560 644 34,000  Climbing Gander Center
Sun 02:34:22 AM 55.3333 -52.9000 71° East 560 644 33,900 -50 Descending Gander Center
Sun 02:35:22 AM 55.4000 -52.6500 65° Northeast 560 644 33,900  Level Gander Center
Sun 02:36:22 AM 55.4667 -52.4000 65° Northeast 560 644 33,900 50 Level Gander Center
Sun 02:37:22 AM 55.5167 -52.1500 70° East 560 644 34,000 50 Climbing Gander Center
Sun 02:38:22 AM 55.5833 -51.9000 65° Northeast 560 644 34,000 -50 Level Gander Center
Sun 02:39:22 AM 55.6333 -51.6167 73° East 560 644 33,900 -60 Descending Gander Center
Sun 02:40:02 AM 55.6833 -51.4167 66° East 280 322 33,900 56 Level Gander Center
Sun 02:41:10 AM 55.7167 -51.2000 75° East 310 357 34,000  Climbing Gander Center
Sun 02:42:10 AM 55.8000 -50.8833 65° Northeast 520 598 33,900 Descending Gander Center
Sun 02:44:00 AM 55.9069 -50.4157 68° East  Level FlightAware Approximate
Sun 02:51:00 AM 56.1736 -48.6775 76° East  Level FlightAware Approximate
Sun 02:52:00 AM 56.2063 -48.4252 77° East  Level FlightAware Approximate
Sun 02:53:00 AM 56.2390 -48.1728 77° East  Level FlightAware Approximate
Sun 02:54:00 AM 56.2711 -47.9199 77° East  Level FlightAware Approximate
Sun 02:55:00 AM 56.3028 -47.6666 77° East  Level FlightAware Approximate
Sun 02:56:00 AM 56.3339 -47.4129 77° East  Level FlightAware Approximate
Sun 02:57:00 AM 56.3645 -47.1588 78° East  Level FlightAware Approximate
Sun 02:58:00 AM 56.3946 -46.9043 78° East  Level FlightAware Approximate
Sun 02:59:00 AM 56.4242 -46.6494 78° East  Level FlightAware Approximate
Sun 03:00:00 AM 56.4533 -46.3941 78° East  Level FlightAware Approximate
Sun 03:01:00 AM 56.4818 -46.1384 78° East  Level FlightAware Approximate
Sun 03:02:00 AM 56.5098 -45.8823 79° East  Level FlightAware Approximate
Sun 03:03:00 AM 56.5372 -45.6259 79° East  Level FlightAware Approximate
Sun 03:04:00 AM 56.5642 -45.3690 79° East  Level FlightAware Approximate
Sun 03:05:00 AM 56.5906 -45.1118 79° East  Level FlightAware Approximate
Sun 03:06:00 AM 56.6165 -44.8543 80° East  Level FlightAware Approximate
Sun 03:07:00 AM 56.6418 -44.5964 80° East  Level FlightAware Approximate
Sun 03:08:00 AM 56.6666 -44.3382 80° East  Level FlightAware Approximate
Sun 03:09:00 AM 56.6909 -44.0796 80° East  Level FlightAware Approximate
Sun 03:10:00 AM 56.7146 -43.8207 80° East  Level FlightAware Approximate
Sun 03:11:00 AM 56.7379 -43.5615 81° East  Level FlightAware Approximate
Sun 03:12:00 AM 56.7605 -43.3019 81° East  Level FlightAware Approximate
Sun 03:13:00 AM 56.7827 -43.0421 81° East  Level FlightAware Approximate
Sun 03:14:00 AM 56.8042 -42.7819 81° East  Level FlightAware Approximate
Sun 03:15:00 AM 56.8253 -42.5215 81° East  Level FlightAware Approximate
Sun 03:16:00 AM 56.8458 -42.2607 82° East  Level FlightAware Approximate
Sun 03:17:00 AM 56.8657 -41.9997 82° East  Level FlightAware Approximate
Sun 03:18:00 AM 56.8852 -41.7384 82° East  Level FlightAware Approximate
Sun 03:19:00 AM 56.9040 -41.4769 82° East  Level FlightAware Approximate
Sun 03:20:00 AM 56.9224 -41.2150 83° East  Level FlightAware Approximate
Sun 03:21:00 AM 56.9401 -40.9529 83° East  Level FlightAware Approximate
Sun 03:22:00 AM 56.9574 -40.6906 83° East  Level FlightAware Approximate
Sun 03:23:00 AM 56.9740 -40.4287 83° East  Level FlightAware Approximate
Sun 03:24:00 AM 56.9901 -40.1666 83° East  Level FlightAware Approximate
Sun 03:25:00 AM 57.0028 -39.9039 87° East  Level FlightAware Approximate
Sun 03:26:00 AM 57.0099 -39.6403 87° East  Level FlightAware Approximate
Sun 03:27:00 AM 57.0165 -39.3765 87° East  Level FlightAware Approximate
Sun 03:28:00 AM 57.0226 -39.1127 87° East  Level FlightAware Approximate
Sun 03:29:00 AM 57.0281 -38.8489 88° East  Level FlightAware Approximate
Sun 03:30:00 AM 57.0330 -38.5849 88° East  Level FlightAware Approximate
Sun 03:31:00 AM 57.0405 -38.3211 87° East  Level FlightAware Approximate
Sun 03:32:00 AM 57.0477 -38.0572 87° East  Level FlightAware Approximate
Sun 03:33:00 AM 57.0544 -37.7932 87° East  Level FlightAware Approximate
Sun 03:34:00 AM 57.0605 -37.5292 87° East  Level FlightAware Approximate
Sun 03:35:00 AM 57.0660 -37.2650 88° East  Level FlightAware Approximate
Sun 03:36:00 AM 57.0709 -37.0008 88° East  Level FlightAware Approximate
Sun 03:37:00 AM 57.0754 -36.7365 88° East  Level FlightAware Approximate
Sun 03:38:00 AM 57.0792 -36.4721 88° East  Level FlightAware Approximate
Sun 03:39:00 AM 57.0825 -36.2077 89° East  Level FlightAware Approximate
Sun 03:40:00 AM 57.0853 -35.9433 89° East  Level FlightAware Approximate
Sun 03:41:00 AM 57.0875 -35.6788 89° East  Level FlightAware Approximate
Sun 03:42:00 AM 57.0891 -35.4143 89° East  Level FlightAware Approximate
Sun 03:43:00 AM 57.0902 -35.1498 89° East  Level FlightAware Approximate
Sun 03:44:00 AM 57.0907 -34.8852 90° East  Level FlightAware Approximate
Sun 03:45:00 AM 57.0907 -34.6207 90° East  Level FlightAware Approximate
Sun 03:46:00 AM 57.0901 -34.3562 90° East  Level FlightAware Approximate
Sun 03:47:00 AM 57.0889 -34.0916 90° East  Level FlightAware Approximate
Sun 03:48:00 AM 57.0872 -33.8271 91° East  Level FlightAware Approximate
Sun 03:49:00 AM 57.0849 -33.5626 91° East  Level FlightAware Approximate
Sun 03:50:00 AM 57.0821 -33.2982 91° East  Level FlightAware Approximate
Sun 03:51:00 AM 57.0788 -33.0338 91° East  Level FlightAware Approximate
Sun 03:52:00 AM 57.0748 -32.7695 91° East  Level FlightAware Approximate
Sun 03:53:00 AM 57.0703 -32.5052 92° East  Level FlightAware Approximate
Sun 03:54:00 AM 57.0653 -32.2409 92° East  Level FlightAware Approximate
Sun 03:55:00 AM 57.0597 -31.9768 92° East  Level FlightAware Approximate
Sun 03:56:00 AM 57.0535 -31.7127 92° East  Level FlightAware Approximate
Sun 03:57:00 AM 57.0468 -31.4488 93° East  Level FlightAware Approximate
Sun 03:58:00 AM 57.0395 -31.1849 93° East  Level FlightAware Approximate
Sun 03:59:00 AM 57.0317 -30.9211 93° East  Level FlightAware Approximate
Sun 04:00:00 AM 57.0233 -30.6575 93° East  Level FlightAware Approximate
Sun 04:01:00 AM 57.0144 -30.3940 93° East  Level FlightAware Approximate
Sun 04:02:00 AM 57.0049 -30.1306 94° East  Level FlightAware Approximate
Sun 04:03:00 AM 56.9921 -29.8678 96° East  Level FlightAware Approximate
Sun 04:04:00 AM 56.9759 -29.6057 96° East  Level FlightAware Approximate
Sun 04:05:00 AM 56.9591 -29.3438 97° East  Level FlightAware Approximate
Sun 04:06:00 AM 56.9419 -29.0822 97° East  Level FlightAware Approximate
Sun 04:07:00 AM 56.9240 -28.8208 97° East  Level FlightAware Approximate
Sun 04:08:00 AM 56.9057 -28.5597 97° East  Level FlightAware Approximate
Sun 04:09:00 AM 56.8868 -28.2988 97° East  Level FlightAware Approximate
Sun 04:10:00 AM 56.8673 -28.0382 98° East  Level FlightAware Approximate
Sun 04:11:00 AM 56.8473 -27.7778 98° East  Level FlightAware Approximate
Sun 04:12:00 AM 56.8268 -27.5178 98° East  Level FlightAware Approximate
Sun 04:13:00 AM 56.8057 -27.2580 98° East  Level FlightAware Approximate
Sun 04:14:00 AM 56.7841 -26.9986 99° East  Level FlightAware Approximate
Sun 04:15:00 AM 56.7620 -26.7394 99° East  Level FlightAware Approximate
Sun 04:16:00 AM 56.7393 -26.4805 99° East  Level FlightAware Approximate
Sun 04:17:00 AM 56.7161 -26.2220 99° East  Level FlightAware Approximate
Sun 04:18:00 AM 56.6923 -25.9638 99° East  Level FlightAware Approximate
Sun 04:19:00 AM 56.6680 -25.7059 100° East  Level FlightAware Approximate
Sun 04:20:00 AM 56.6432 -25.4483 100° East  Level FlightAware Approximate
Sun 04:21:00 AM 56.6179 -25.1911 100° East  Level FlightAware Approximate
Sun 04:22:00 AM 56.5920 -24.9342 100° East  Level FlightAware Approximate
Sun 04:23:00 AM 56.5656 -24.6777 100° East  Level FlightAware Approximate
Sun 04:24:00 AM 56.5386 -24.4216 101° East  Level FlightAware Approximate
Sun 04:25:00 AM 56.5114 -24.1658 101° East  Level FlightAware Approximate
Sun 04:26:00 AM 56.4843 -23.9100 101° East  Level FlightAware Approximate
Sun 04:27:00 AM 56.4568 -23.6546 101° East  Level FlightAware Approximate
Sun 04:28:00 AM 56.4288 -23.3996 101° East  Level FlightAware Approximate
Sun 04:29:00 AM 56.4002 -23.1449 101° East  Level FlightAware Approximate
Sun 04:30:00 AM 56.3710 -22.8898 102° East  Level FlightAware Approximate
Sun 04:31:00 AM 56.3413 -22.6351 102° East  Level FlightAware Approximate
Sun 04:32:00 AM 56.3110 -22.3807 102° East  Level FlightAware Approximate
Sun 04:33:00 AM 56.2803 -22.1268 102° East  Level FlightAware Approximate
Sun 04:34:00 AM 56.2490 -21.8733 102° East  Level FlightAware Approximate
Sun 04:35:00 AM 56.2172 -21.6202 103° East  Level FlightAware Approximate
Sun 04:36:00 AM 56.1849 -21.3675 103° East  Level FlightAware Approximate
Sun 04:37:00 AM 56.1520 -21.1152 103° East  Level FlightAware Approximate
Sun 04:38:00 AM 56.1187 -20.8634 103° East  Level FlightAware Approximate
Sun 04:39:00 AM 56.0848 -20.6121 103° East  Level FlightAware Approximate
Sun 04:40:00 AM 56.0505 -20.3611 104° East  Level FlightAware Approximate
Sun 04:41:00 AM 56.0156 -20.1106 104° East  Level FlightAware Approximate
Sun 04:42:00 AM 55.9875 -19.8580 99° East  Level FlightAware Approximate
Sun 04:43:00 AM 55.9647 -19.6035 99° East  Level FlightAware Approximate
Sun 04:44:00 AM 55.9413 -19.3493 99° East  Level FlightAware Approximate
Sun 04:45:00 AM 55.9174 -19.0954 99° East  Level FlightAware Approximate
Sun 04:46:00 AM 55.8930 -18.8418 100° East  Level FlightAware Approximate
Sun 04:47:00 AM 55.8681 -18.5885 100° East  Level FlightAware Approximate
Sun 04:48:00 AM 55.8427 -18.3356 100° East  Level FlightAware Approximate
Sun 04:49:00 AM 55.8167 -18.0830 100° East  Level FlightAware Approximate
Sun 04:50:00 AM 55.7902 -17.8308 100° East  Level FlightAware Approximate
Sun 04:51:00 AM 55.7633 -17.5797 101° East  Level FlightAware Approximate
Sun 04:52:00 AM 55.7359 -17.3290 101° East  Level FlightAware Approximate
Sun 04:53:00 AM 55.7080 -17.0787 101° East  Level FlightAware Approximate
Sun 04:54:00 AM 55.6796 -16.8287 101° East  Level FlightAware Approximate
Sun 04:55:00 AM 55.6506 -16.5791 102° East  Level FlightAware Approximate
Sun 04:55:32 AM 54.5380 -13.1640 102° East 538 619 35,000  Level FlightAware ADS-B
Sun 04:56:00 AM 55.6212 -16.3299 102° East  Level FlightAware Approximate
Sun 04:57:00 AM 55.5912 -16.0810 102° East  Level FlightAware Approximate
Sun 04:57:02 AM 54.4490 -12.8290 114° Southeast 538 619 35,000  Level FlightAware ADS-B
Sun 04:57:37 AM 54.4120 -12.6890 114° Southeast 538 619 35,000  Level FlightAware ADS-B
Sun 04:58:12 AM 54.3740 -12.5500 115° Southeast 537 618 35,000  Level FlightAware ADS-B
Sun 04:58:42 AM 54.3450 -12.4420 115° Southeast 536 617 35,000  Level FlightAware ADS-B
Sun 04:59:37 AM 54.2890 -12.2280 114° Southeast 536 617 35,000  Level FlightAware ADS-B
Sun 05:00:22 AM 54.2390 -12.0540 116° Southeast 536 617 35,000  Level FlightAware ADS-B
Sun 05:01:02 AM 54.1940 -11.8900 115° Southeast 536 617 35,000  Level FlightAware ADS-B
Sun 05:01:27 AM 54.1670 -11.7910 115° Southeast 535 616 35,000  Level FlightAware ADS-B
Sun 05:02:22 AM 54.1120 -11.5970 116° Southeast 532 612 35,000  Level FlightAware ADS-B
Sun 05:03:47 AM 54.0200 -11.2740 116° Southeast 532 612 35,000  Level FlightAware ADS-B
Sun 05:04:52 AM 53.9490 -11.0240 116° Southeast 532 612 35,000  Level FlightAware ADS-B
Sun 05:05:22 AM 53.9160 -10.9110 116° Southeast 533 613 35,000  Level FlightAware ADS-B
Sun 05:05:57 AM 53.8770 -10.7720 115° Southeast 533 613 35,000  Level FlightAware ADS-B
Sun 05:06:27 AM 53.8420 -10.6550 117° Southeast 532 612 35,000  Level FlightAware ADS-B
Sun 05:07:17 AM 53.7910 -10.4830 117° Southeast 536 617 35,000  Level FlightAware ADS-B
Sun 05:08:22 AM 53.7180 -10.2360 116° Southeast 533 613 35,000  Level FlightAware ADS-B
Sun 05:08:52 AM 53.6820 -10.1140 116° Southeast 532 612 35,000  Level FlightAware ADS-B
Sun 05:09:32 AM 53.6370 -9.9630 117° Southeast 531 611 35,000  Level FlightAware ADS-B
Sun 05:10:17 AM 53.5910 -9.8120 117° Southeast 530 610 35,000  Level FlightAware ADS-B
Sun 05:11:07 AM 53.5350 -9.6290 117° Southeast 528 608 35,000  Level FlightAware ADS-B
Sun 05:12:02 AM 53.4730 -9.4220 117° Southeast 527 606 35,000 540 Level FlightAware ADS-B
Sun 05:12:47 AM 53.4220 -9.2580 118° Southeast 526 605 35,900 1,200 Climbing FlightAware ADS-B
Sun 05:13:22 AM 53.3820 -9.1320 118° Southeast 524 603 36,600 943 Climbing FlightAware ADS-B
Sun 05:13:57 AM 53.3420 -9.0030 117° Southeast 529 609 37,000 -1,440 Climbing FlightAware ADS-B
Sun 05:14:12 AM 53.3226 -8.9396 117° Southeast 478 550 35,400 -2,909 Descending FlightAware UK
Sun 05:14:30 AM 53.3021 -8.8742 118° Southeast 478 550 35,400 4,800 Level FlightAware UK
Sun 05:14:32 AM 53.3030 -8.8760 118° Southeast 527 606 37,000  Climbing FlightAware ADS-B
Sun 05:14:48 AM 53.2815 -8.8089 118° Southeast 480 552 35,400 -2,824 Descending FlightAware UK
Sun 05:15:06 AM 53.2611 -8.7437 118° Southeast 484 557 35,400  Level FlightAware UK
Sun 05:15:24 AM 53.2405 -8.6786 118° Southeast 484 557 35,400  Level FlightAware UK
Sun 05:15:42 AM 53.2197 -8.6139 118° Southeast 482 555 35,400  Level FlightAware UK
Sun 05:16:00 AM 53.1990 -8.5492 118° Southeast 482 555 35,400  Level FlightAware UK
Sun 05:16:18 AM 53.1783 -8.4849 118° Southeast 480 552 35,400 3,000 Level FlightAware UK
Sun 05:16:32 AM 53.1670 -8.4520 118° Southeast 520 598 37,000  Climbing FlightAware ADS-B
Sun 05:16:36 AM 53.1577 -8.4209 118° Southeast 480 552 35,400 -6,000 Descending FlightAware UK
Sun 05:16:48 AM 53.1437 -8.3776 118° Southeast 480 552 35,400  Level FlightAware UK
Sun 05:17:06 AM 53.1232 -8.3139 118° Southeast 476 548 35,400  Level FlightAware UK
Sun 05:17:24 AM 53.1028 -8.2503 118° Southeast 474 545 35,400  Level FlightAware UK
Sun 05:17:42 AM 53.0825 -8.1869 118° Southeast 474 545 35,400  Level FlightAware UK
Sun 05:18:00 AM 53.0620 -8.1238 118° Southeast 474 545 35,400 3,840 Level FlightAware UK
Sun 05:18:07 AM 53.0570 -8.1090 118° Southeast 517 595 37,000  Climbing FlightAware ADS-B
Sun 05:18:24 AM 53.0346 -8.0398 118° Southeast 478 550 35,400 -2,743 Descending FlightAware UK
Sun 05:18:42 AM 53.0139 -7.9768 119° Southeast 478 550 35,400 2,909 Level FlightAware UK
Sun 05:18:57 AM 53.0030 -7.9440 119° Southeast 517 595 37,000  Climbing FlightAware ADS-B
Sun 05:19:00 AM 52.9932 -7.9137 119° Southeast 474 545 35,400 -6,400 Descending FlightAware UK
Sun 05:19:12 AM 52.9794 -7.8716 119° Southeast 474 545 35,400  Level FlightAware UK
Sun 05:19:30 AM 52.9587 -7.8086 119° Southeast 474 545 35,400  Level FlightAware UK
Sun 05:19:48 AM 52.9382 -7.7456 118° Southeast 474 545 35,400  Level FlightAware UK
Sun 05:20:06 AM 52.9175 -7.6827 119° Southeast 474 545 35,400  Level FlightAware UK
Sun 05:20:24 AM 52.8967 -7.6201 119° Southeast 474 545 35,400 3,097 Level FlightAware UK
Sun 05:20:37 AM 52.8870 -7.5920 119° Southeast 515 593 37,000  Climbing FlightAware ADS-B
Sun 05:20:54 AM 52.8619 -7.5158 119° Southeast 474 545 35,400  Descending FlightAware UK
Sun 05:21:07 AM 52.8520 -7.4880 119° Southeast 516 594 37,000  Climbing FlightAware ADS-B
Sun 05:21:24 AM 52.8272 -7.4118 119° Southeast 474 545 35,400 -2,743 Descending FlightAware UK
Sun 05:21:42 AM 52.8063 -7.3492 119° Southeast 474 545 35,400 2,909 Level FlightAware UK
Sun 05:21:57 AM 52.7930 -7.3110 119° Southeast 516 594 37,000  Climbing FlightAware ADS-B
Sun 05:22:12 AM 52.7715 -7.2451 119° Southeast 476 548 35,400 -2,909 Descending FlightAware UK
Sun 05:22:30 AM 52.7505 -7.1828 119° Southeast 474 545 35,400  Level FlightAware UK
Sun 05:22:48 AM 52.7296 -7.1195 119° Southeast 476 548 35,400  Level FlightAware UK
Sun 05:23:06 AM 52.7126 -7.0537 113° Southeast 476 548 35,400 3,310 Level FlightAware UK
Sun 05:23:17 AM 52.7050 -7.0240 113° Southeast 521 600 37,000  Climbing FlightAware ADS-B
Sun 05:23:36 AM 52.6886 -6.9415 113° Southeast 474 545 35,400  Descending FlightAware UK
Sun 05:23:47 AM 52.6830 -6.9150 113° Southeast 520 598 37,000  Climbing FlightAware ADS-B
Sun 05:24:06 AM 52.6682 -6.8276 113° Southeast 474 545 35,400 -2,595 Descending FlightAware UK
Sun 05:24:24 AM 52.6559 -6.7592 107° East 474 545 35,400 3,097 Level FlightAware UK
Sun 05:24:37 AM 52.6500 -6.7250 107° East 522 601 37,000  Climbing FlightAware ADS-B
Sun 05:24:54 AM 52.6353 -6.6452 107° East 476 548 35,400  Descending FlightAware UK
Sun 05:25:07 AM 52.6290 -6.6110 107° East 521 600 37,000  Climbing FlightAware ADS-B
Sun 05:25:24 AM 52.6146 -6.5313 107° East 472 543 35,400 -2,743 Descending FlightAware UK
Sun 05:25:42 AM 52.6021 -6.4629 107° East 476 548 35,400 4,174 Level FlightAware UK
Sun 05:25:47 AM 52.6010 -6.4590 107° East 524 603 37,000  Climbing FlightAware ADS-B
Sun 05:26:06 AM 52.5853 -6.3715 107° East 478 550 35,400  Descending FlightAware UK
Sun 05:26:22 AM 52.5750 -6.3210 107° East 526 605 37,000  Climbing FlightAware ADS-B
Sun 05:26:24 AM 52.5726 -6.3028 107° East 478 550 35,400 -4,800 Descending FlightAware UK
Sun 05:26:42 AM 52.5600 -6.2339 107° East 480 552 35,400 2,909 Level FlightAware UK
Sun 05:26:57 AM 52.5500 -6.1840 107° East 527 606 37,000  Climbing FlightAware ADS-B
Sun 05:27:12 AM 52.5388 -6.1187 107° East 474 545 35,400 -2,909 Descending FlightAware UK
Sun 05:27:30 AM 52.5257 -6.0496 107° East 480 552 35,400 3,840 Level FlightAware UK
Sun 05:27:37 AM 52.5230 -6.0380 107° East 532 612 37,000  Climbing FlightAware ADS-B
Sun 05:27:54 AM 52.5081 -5.9564 107° East 482 555 35,400 -2,743 Descending FlightAware UK
Sun 05:28:12 AM 52.4950 -5.8866 107° East 482 555 35,400  Level FlightAware UK
Sun 05:28:36 AM 52.4774 -5.7937 107° East 484 557 35,400 2,743 Level FlightAware UK
Sun 05:28:47 AM 52.4710 -5.7590 107° East 536 617 37,000  Climbing FlightAware ADS-B
Sun 05:29:06 AM 52.4554 -5.6775 107° East 484 557 35,400  Descending FlightAware UK
Sun 05:29:17 AM 52.4490 -5.6470 107° East 537 618 37,000  Climbing FlightAware ADS-B
Sun 05:29:42 AM 52.4285 -5.5379 107° East 488 562 35,400  Descending FlightAware UK
Sun 05:29:52 AM 52.4230 -5.5110 107° East 538 619 37,000  Climbing FlightAware ADS-B
Sun 05:30:12 AM 52.4061 -5.4214 107° East 490 564 35,400  Descending FlightAware UK
Sun 05:30:27 AM 52.3960 -5.3720 107° East 538 619 37,000  Climbing FlightAware ADS-B
Sun 05:30:42 AM 52.3834 -5.3052 107° East 488 562 35,400 -2,909 Descending FlightAware UK
Sun 05:31:00 AM 52.3699 -5.2356 108° East 490 564 35,400  Level FlightAware UK
Sun 05:31:18 AM 52.3565 -5.1659 107° East 488 562 35,400  Level FlightAware UK
Sun 05:31:36 AM 52.3428 -5.0965 108° East 486 559 35,400 4,000 Level FlightAware UK
Sun 05:31:42 AM 52.3400 -5.0860 108° East 536 617 37,000  Climbing FlightAware ADS-B
Sun 05:32:00 AM 52.3246 -5.0041 108° East 490 564 35,400 -2,667 Descending FlightAware UK
Sun 05:32:18 AM 52.3108 -4.9349 108° East 488 562 35,400 3,556 Level FlightAware UK
Sun 05:32:27 AM 52.3070 -4.9170 108° East 535 616 37,000  Climbing FlightAware ADS-B
Sun 05:32:42 AM 52.2925 -4.8428 108° East 490 564 35,400 -2,909 Descending FlightAware UK
Sun 05:33:00 AM 52.2784 -4.7731 108° East 488 562 35,400 3,840 Level FlightAware UK
Sun 05:33:07 AM 52.2760 -4.7600 108° East 533 613 37,000  Climbing FlightAware ADS-B
Sun 05:33:24 AM 52.2598 -4.6816 108° East 486 559 35,400 -2,743 Descending FlightAware UK
Sun 05:33:42 AM 52.2460 -4.6130 108° East 486 559 35,400  Level FlightAware UK
Sun 05:34:00 AM 52.2320 -4.5447 109° East 488 562 35,400 3,840 Level FlightAware UK
Sun 05:34:07 AM 52.2310 -4.5430 109° East 532 612 37,000  Climbing FlightAware ADS-B
Sun 05:34:36 AM 52.2037 -4.4082 109° East 486 559 35,400  Descending FlightAware UK
Sun 05:34:42 AM 52.2010 -4.3990 109° East 531 611 37,000  Climbing FlightAware ADS-B
Sun 05:35:00 AM 52.1849 -4.3174 109° East 486 559 35,400 -2,667 Descending FlightAware UK
Sun 05:35:18 AM 52.1708 -4.2494 109° East 480 552 35,400 3,000 Level FlightAware UK
Sun 05:35:32 AM 52.1640 -4.2180 109° East 529 609 37,000  Climbing FlightAware ADS-B
Sun 05:35:48 AM 52.1473 -4.1363 109° East 484 557 35,400 -2,400 Descending FlightAware UK
Sun 05:36:12 AM 52.1285 -4.0460 109° East 484 557 35,400 3,310 Level FlightAware UK
Sun 05:36:17 AM 52.1290 -4.0520 109° East 530 610 37,000 2,400 Climbing FlightAware ADS-B
Sun 05:36:52 AM 52.0990 -3.9090 109° East 530 610 37,000 -1,920 Level FlightAware ADS-B
Sun 05:37:07 AM 52.0853 -3.8421 109° East 480 552 35,400 -2,462 Descending FlightAware UK
Sun 05:37:31 AM 52.0661 -3.7516 109° East 486 559 35,400 3,200 Level FlightAware UK
Sun 05:37:37 AM 52.0630 -3.7430 109° East 533 613 37,000  Climbing FlightAware ADS-B
Sun 05:38:07 AM 52.0370 -3.6156 109° East 492 566 35,400 -120 Descending FlightAware UK
Sun 05:38:27 AM 52.0220 -3.5500 109° East 532 612 36,900  Climbing FlightAware ADS-B
Sun 05:38:43 AM 52.0076 -3.4799 109° East 492 566 35,400 -2,647 Descending FlightAware UK
Sun 05:39:01 AM 51.9929 -3.4123 109° East 486 559 35,400 5,053 Level FlightAware UK
Sun 05:39:02 AM 51.9940 -3.4190 109° East 530 610 37,000  Climbing FlightAware ADS-B
Sun 05:39:25 AM 51.9734 -3.3224 109° East 488 562 35,400  Descending FlightAware UK
Sun 05:39:42 AM 51.9610 -3.2660 109° East 528 608 37,000  Climbing FlightAware ADS-B
Sun 05:40:01 AM 51.9441 -3.1874 109° East 490 564 35,400 -2,595 Descending FlightAware UK
Sun 05:40:19 AM 51.9293 -3.1205 110° East 484 557 35,400  Level FlightAware UK
Sun 05:40:37 AM 51.9148 -3.0534 109° East 480 552 35,400 4,174 Level FlightAware UK
Sun 05:40:42 AM 51.9120 -3.0460 109° East 528 608 37,000  Climbing FlightAware ADS-B
Sun 05:41:19 AM 51.8798 -2.8966 109° East 486 559 35,400 -133 Descending FlightAware UK
Sun 05:41:27 AM 51.8750 -2.8780 109° East 529 609 36,900  Climbing FlightAware ADS-B
Sun 05:41:43 AM 51.8599 -2.8074 109° East 480 552 35,400 200 Descending FlightAware UK
Sun 05:41:57 AM 51.8484 -2.7560 109° East 528 608 37,000 2,368 Climbing FlightAware ADS-B
Sun 05:42:21 AM 51.8313 -2.6659 107° East 526 605 36,900 -222 Descending FlightAware ADS-B
Sun 05:42:24 AM 51.8299 -2.6542 101° East 524 603 36,900 353 Level FlightAware ADS-B
Sun 05:42:38 AM 51.8242 -2.6042 100° East 522 601 37,000 -2,903 Climbing FlightAware ADS-B
Sun 05:42:55 AM 51.8176 -2.5341 100° East 488 562 35,400  Descending FlightAware UK
Sun 05:43:10 AM 51.8122 -2.4817 100° East 522 601 37,000 1,882 Climbing FlightAware ADS-B
Sun 05:43:46 AM 51.7970 -2.3396 100° East 523 602 37,000 -1,882 Level FlightAware ADS-B
Sun 05:44:01 AM 51.7904 -2.2803 100° East 490 564 35,400  Descending FlightAware UK
Sun 05:44:17 AM 51.7833 -2.2251 100° East 521 600 37,000  Climbing FlightAware ADS-B
Sun 05:44:43 AM 51.7705 -2.1201 100° East 494 568 35,400 -158 Descending FlightAware UK
Sun 05:44:55 AM 51.7646 -2.0766 100° East 522 601 36,900  Climbing FlightAware ADS-B
Sun 05:45:14 AM 51.7556 -2.0054 100° East 496 571 35,400 167 Descending FlightAware UK
Sun 05:45:31 AM 51.7472 -1.9442 100° East 517 595 37,000 2,000 Climbing FlightAware ADS-B
Sun 05:46:02 AM 51.7316 -1.8281 102° East 514 592 37,000  Level FlightAware ADS-B
Sun 05:46:32 AM 51.7166 -1.7160 102° East 513 590 37,000 -1,778 Level FlightAware ADS-B
Sun 05:46:56 AM 51.7047 -1.6238 102° East 486 559 35,400  Descending FlightAware UK
Sun 05:47:06 AM 51.7000 -1.5891 102° East 512 589 37,000 2,341 Climbing FlightAware ADS-B
Sun 05:47:37 AM 51.6854 -1.4696 101° East 513 590 37,000  Level FlightAware ADS-B
Sun 05:48:08 AM 51.6714 -1.3575 101° East 514 592 37,000 -1,959 Level FlightAware ADS-B
Sun 05:48:26 AM 51.6632 -1.2866 101° East 486 559 35,400  Descending FlightAware UK
Sun 05:48:39 AM 51.6570 -1.2414 101° East 515 593 37,000  Climbing FlightAware ADS-B
Sun 05:48:56 AM 51.6488 -1.1735 101° East 486 559 35,400  Descending FlightAware UK
Sun 05:49:09 AM 51.6427 -1.1286 101° East 515 593 37,000 2,182 Climbing FlightAware ADS-B
Sun 05:49:40 AM 51.6277 -1.0124 102° East 517 595 37,000  Level FlightAware ADS-B
Sun 05:50:11 AM 51.6127 -0.8957 102° East 518 596 37,000 -2,087 Level FlightAware ADS-B
Sun 05:50:26 AM 51.6053 -0.8346 102° East 494 568 35,400  Descending FlightAware UK
Sun 05:50:42 AM 51.5974 -0.7755 102° East 517 595 37,000  Climbing FlightAware ADS-B
Sun 05:51:08 AM 51.5845 -0.6771 102° East 498 573 35,400  Descending FlightAware UK
Sun 05:51:15 AM 51.5815 -0.6554 102° East 517 595 37,000 2,526 Climbing FlightAware ADS-B
Sun 05:51:46 AM 51.5658 -0.5354 102° East 516 594 37,000  Level FlightAware ADS-B
Sun 05:52:16 AM 51.5507 -0.4231 102° East 516 594 37,000  Level FlightAware ADS-B
Sun 05:52:46 AM 51.5356 -0.3110 102° East 517 595 37,000 -2,043 Level FlightAware ADS-B
Sun 05:53:03 AM 51.5274 -0.2486 102° East 488 562 35,400  Descending FlightAware UK
Sun 05:53:17 AM 51.5201 -0.1986 102° East 518 596 37,000  Climbing FlightAware ADS-B
Sun 05:53:39 AM 51.5087 -0.1133 102° East 492 566 35,400  Descending FlightAware UK
Sun 05:53:49 AM 51.5036 -0.0748 102° East 518 596 37,000 2,341 Climbing FlightAware ADS-B
Sun 05:54:20 AM 51.4876 0.0415 102° East 520 598 37,000 -1,920 Level FlightAware ADS-B
Sun 05:54:39 AM 51.4780 0.1118 102° East 488 562 35,400  Descending FlightAware UK
Sun 05:54:52 AM 51.4713 0.1583 102° East 522 601 37,000 2,233 Climbing FlightAware ADS-B
Sun 05:55:22 AM 51.4553 0.2712 103° East 524 603 37,000  Level FlightAware ADS-B
Sun 05:55:52 AM 51.4410 0.3730 103° East 523 602 37,000  Level FlightAware ADS-B
Sun 05:56:47 AM 51.4130 0.5700 103° East 523 602 37,000 -1,352 Level FlightAware ADS-B
Sun 05:57:03 AM 51.4008 0.6563 103° East 496 571 35,400  Descending FlightAware UK
Sun 05:57:24 AM 51.3899 0.7313 103° East 522 601 37,000 1,882 Climbing FlightAware ADS-B
Sun 05:57:54 AM 51.3732 0.8475 103° East 522 601 37,000  Level FlightAware ADS-B
Sun 05:58:24 AM 51.3566 0.9604 103° East 523 602 37,000 -1,684 Level FlightAware ADS-B
Sun 05:58:51 AM 51.3416 1.0632 103° East 496 571 35,400 -2,087 Descending FlightAware UK
Sun 05:59:10 AM 51.3315 1.1315 103° East 494 568 35,400  Level FlightAware UK
Sun 05:59:28 AM 51.3215 1.1991 103° East 494 568 35,400 4,364 Level FlightAware UK
Sun 05:59:32 AM 51.3250 1.1780 103° East 521 600 37,000 2,824 Climbing FlightAware ADS-B
Sun 06:00:02 AM 51.3060 1.3050 103° East 521 600 37,000 -1,920 Level FlightAware ADS-B
Sun 06:00:22 AM 51.2909 1.4023 103° East 502 578 35,400  Descending FlightAware UK
Sun 06:00:47 AM 51.2800 1.4740 103° East 519 597 37,000  Climbing FlightAware ADS-B
Sun 06:01:28 AM 51.2535 1.6488 103° East 496 571 35,400 -1,627 Descending FlightAware UK
Sun 06:01:46 AM 51.2420 1.7161 105° East 494 568 35,400  Level FlightAware UK
Sun 06:02:10 AM 51.2155 1.7997 117° Southeast 494 568 35,400 2,667 Level FlightAware UK
Sun 06:02:22 AM 51.2080 1.8240 117° Southeast 530 610 37,000  Climbing FlightAware ADS-B
Sun 06:02:40 AM 51.1825 1.9040 117° Southeast 494 568 35,400 -2,286 Descending FlightAware UK
Sun 06:03:04 AM 51.1565 1.9879 116° Southeast 500 575 35,400 3,556 Level FlightAware UK
Sun 06:03:07 AM 51.1570 1.9880 116° Southeast 531 611 37,000  Climbing FlightAware ADS-B
Sun 06:03:22 AM 51.1372 2.0509 116° Southeast 498 573 35,400 -2,909 Descending FlightAware UK
Sun 06:03:40 AM 51.1187 2.1155 115° Southeast 494 568 35,400  Level FlightAware UK
Sun 06:03:54 AM 51.1056 2.1609 115° Southeast 37,000  Climbing FlightAware ADS-B
Sun 06:04:16 AM 51.0820 2.2429 115° Southeast 494 568 35,400  Descending FlightAware UK
Sun 06:04:27 AM 51.0719 2.2773 115° Southeast 530 610 37,000  Climbing FlightAware ADS-B
Sun 06:04:47 AM 51.0511 2.3501 115° Southeast 494 568 35,400  Descending FlightAware UK
Sun 06:05:07 AM 51.0360 2.4010 115° Southeast 525 604 37,000  Climbing FlightAware ADS-B
Sun 06:05:22 AM 51.0147 2.4766 115° Southeast 498 573 35,400 -2,909 Descending FlightAware UK
Sun 06:05:40 AM 50.9964 2.5403 114° Southeast 498 573 35,400 3,840 Level FlightAware UK
Sun 06:05:47 AM 50.9930 2.5500 114° Southeast 530 610 37,000  Climbing FlightAware ADS-B
Sun 06:06:10 AM 50.9659 2.6465 114° Southeast 500 575 35,400 -1,627 Descending FlightAware UK
Sun 06:06:46 AM 50.9267 2.7721 116° Southeast 498 573 35,400 1,684 Level FlightAware UK
Sun 06:07:07 AM 50.9080 2.8290 116° Southeast 527 606 37,000  Climbing FlightAware ADS-B
Sun 06:07:23 AM 50.8866 2.8973 116° Southeast 496 571 35,400 -2,824 Descending FlightAware UK
Sun 06:07:41 AM 50.8669 2.9598 117° Southeast 496 571 35,400 4,000 Level FlightAware UK
Sun 06:07:47 AM 50.8640 2.9680 117° Southeast 530 610 37,000  Climbing FlightAware ADS-B
Sun 06:08:05 AM 50.8407 3.0432 117° Southeast 496 571 35,400 -2,667 Descending FlightAware UK
Sun 06:08:23 AM 50.8210 3.1056 117° Southeast 496 571 35,400 3,556 Level FlightAware UK
Sun 06:08:32 AM 50.8220 3.1000 117° Southeast 527 606 37,000  Climbing FlightAware ADS-B
Sun 06:08:53 AM 50.7879 3.2103 117° Southeast 494 568 35,400  Descending FlightAware UK
Sun 06:09:07 AM 50.7780 3.2390 117° Southeast 527 606 37,000 2,341 Climbing FlightAware ADS-B
Sun 06:09:34 AM 50.7424 3.3526 116° Southeast 533 613 37,000 -1,500 Level FlightAware ADS-B
Sun 06:10:11 AM 50.7013 3.4799 116° Southeast 498 573 35,400 -1,315 Descending FlightAware UK
Sun 06:10:47 AM 50.6617 3.6046 117° Southeast 496 571 35,400 2,667 Level FlightAware UK
Sun 06:10:47 AM 50.6670 3.5880 117° Southeast 532 612 37,000 8,000 Climbing FlightAware ADS-B
Sun 06:10:59 AM 50.6482 3.6432 118° Southeast 533 613 37,000 -2,667 Level FlightAware ADS-B
Sun 06:11:23 AM 50.6216 3.7289 118° Southeast 502 578 35,400 -2,286 Descending FlightAware UK
Sun 06:11:41 AM 50.6015 3.7911 117° Southeast 498 573 35,400 1,391 Level FlightAware UK
Sun 06:12:32 AM 50.5480 3.9500 117° Southeast 534 615 37,000  Climbing FlightAware ADS-B
Sun 06:13:11 AM 50.5004 4.1014 117° Southeast 500 575 35,400  Descending FlightAware UK
Sun 06:13:17 AM 50.4990 4.1050 117° Southeast 534 615 37,000  Climbing FlightAware ADS-B
Sun 06:13:35 AM 50.4728 4.1835 117° Southeast 1 1 35,400  Descending FlightAware UK
Sun 06:13:52 AM 50.4600 4.2180 117° Southeast 534 615 37,000  Climbing FlightAware ADS-B
Sun 06:14:17 AM 50.4238 4.3265 117° Southeast 1 1 35,400  Descending FlightAware UK
Sun 06:14:42 AM 50.4060 4.3830 117° Southeast 530 610 37,000  Climbing FlightAware ADS-B
Sun 06:14:47 AM 50.3904 4.4309 117° Southeast 1 1 35,400  Descending FlightAware UK
Sun 06:15:27 AM 50.3480 4.5570 118° Southeast 531 611 37,000 1,371 Climbing FlightAware ADS-B
Sun 06:15:57 AM 50.3130 4.6620 118° Southeast 530 610 37,000  Level FlightAware ADS-B
Sun 06:16:37 AM 50.2670 4.7980 118° Southeast 530 610 37,000  Level FlightAware ADS-B
Sun 06:17:07 AM 50.2350 4.8920 118° Southeast 530 610 37,000  Level FlightAware ADS-B
Sun 06:17:52 AM 50.1820 5.0470 118° Southeast 528 608 37,000  Level FlightAware ADS-B
Sun 06:19:27 AM 50.0800 5.3440 118° Southeast 520 598 37,000  Level FlightAware ADS-B
Sun 06:20:07 AM 50.0340 5.4760 118° Southeast 517 595 37,000  Level FlightAware ADS-B
Sun 06:21:12 AM 49.9570 5.6960 118° Southeast 514 592 37,000  Level FlightAware ADS-B
Sun 06:21:52 AM 49.9160 5.8130 119° Southeast 516 594 37,000  Level FlightAware ADS-B
Sun 06:22:57 AM 49.8310 6.0550 118° Southeast 520 598 37,000  Level FlightAware ADS-B
Sun 06:23:47 AM 49.7730 6.2180 119° Southeast 518 596 37,000  Level FlightAware ADS-B
Sun 06:24:32 AM 49.7220 6.3570 120° Southeast 517 595 37,000  Level FlightAware ADS-B
Sun 06:25:22 AM 49.6630 6.5210 119° Southeast 516 594 37,000  Level FlightAware ADS-B
Sun 06:27:00 AM 49.5478 6.8366 119° Southeast  Level Estimated
Sun 06:27:02 AM 49.5310 6.8190 119° Southeast 515 593 37,000  Level FlightAware ADS-B
Sun 06:27:52 AM 49.4660 6.9620 125° Southeast 515 593 37,000  Level FlightAware ADS-B
Sun 06:28:32 AM 49.4080 7.0880 125° Southeast 515 593 37,000  Level FlightAware ADS-B
Sun 06:29:37 AM 49.3150 7.2860 126° Southeast 516 594 37,000  Level FlightAware ADS-B
Sun 06:30:22 AM 49.2520 7.4210 126° Southeast 520 598 37,000  Level FlightAware ADS-B
Sun 06:31:22 AM 49.1660 7.6050 126° Southeast 510 587 37,000  Level FlightAware ADS-B
Sun 06:32:02 AM 49.1120 7.7190 126° Southeast 516 594 37,000  Level FlightAware ADS-B
Sun 06:32:57 AM 49.0360 7.8780 126° Southeast 517 595 37,000  Level FlightAware ADS-B
Sun 06:33:37 AM 48.9810 7.9930 126° Southeast 517 595 37,000  Level FlightAware ADS-B
Sun 06:34:42 AM 48.8900 8.1830 126° Southeast 516 594 37,000  Level FlightAware ADS-B
Sun 06:35:32 AM 48.8160 8.3340 127° Southeast 515 593 37,000 -60 Level FlightAware ADS-B
Sun 06:36:22 AM 48.7430 8.4820 127° Southeast 516 594 36,900  Descending FlightAware ADS-B
Sun 06:36:52 AM 48.7000 8.5690 127° Southeast 515 593 37,000 41 Climbing FlightAware ADS-B
Sun 06:38:47 AM 48.5360 8.9020 127° Southeast 518 596 37,000  Level FlightAware ADS-B
Sun 06:39:27 AM 48.4790 9.0180 127° Southeast 513 590 37,000  Level FlightAware ADS-B
Sun 06:40:02 AM 48.4300 9.1160 127° Southeast 515 593 37,000  Level FlightAware ADS-B
Sun 06:40:57 AM 48.3530 9.2680 127° Southeast 516 594 37,000  Level FlightAware ADS-B
Sun 06:41:22 AM 48.3170 9.3380 128° Southeast 517 595 37,000  Level FlightAware ADS-B
Sun 06:42:02 AM 48.2560 9.4500 129° Southeast 520 598 37,000  Level FlightAware ADS-B
Sun 06:42:37 AM 48.1930 9.5420 136° Southeast 518 596 37,000  Level FlightAware ADS-B
Sun 06:43:07 AM 48.1440 9.6060 139° Southeast 518 596 37,000  Level FlightAware ADS-B
Sun 06:43:57 AM 48.0520 9.7240 139° Southeast 518 596 37,000  Level FlightAware ADS-B
Sun 06:44:37 AM 47.9730 9.8260 139° Southeast 515 593 37,000  Level FlightAware ADS-B
Sun 06:46:12 AM 47.7980 10.0410 140° Southeast 514 592 37,000  Level FlightAware ADS-B
Sun 06:46:47 AM 47.7370 10.1090 143° Southeast 514 592 37,000  Level FlightAware ADS-B
Sun 06:47:12 AM 47.6840 10.1680 143° Southeast 514 592 37,000  Level FlightAware ADS-B
Sun 06:48:02 AM 47.5980 10.2620 144° Southeast 509 586 37,000  Level FlightAware ADS-B
Sun 06:48:47 AM 47.5070 10.3630 143° Southeast 508 585 37,000  Level FlightAware ADS-B
Sun 06:49:27 AM 47.4310 10.4440 144° Southeast 512 589 37,000  Level FlightAware ADS-B
Sun 06:50:02 AM 47.3550 10.5140 148° Southeast 509 586 37,000  Level FlightAware ADS-B
Sun 06:50:57 AM 47.2480 10.6000 151° Southeast 507 583 37,000  Level FlightAware ADS-B
Sun 06:52:42 AM 47.0210 10.7490 156° South 506 582 37,000  Level FlightAware ADS-B
Sun 06:53:22 AM 46.9510 10.8160 147° Southeast 500 575 37,000  Level FlightAware ADS-B
Sun 06:53:57 AM 46.8790 10.8920 144° Southeast 498 573 37,000  Level FlightAware ADS-B
Sun 06:54:22 AM 46.8300 10.9440 144° Southeast 496 571 37,000  Level FlightAware ADS-B
Sun 06:55:07 AM 46.7730 11.0130 140° Southeast 504 580 37,000  Level FlightAware ADS-B
Sun 06:55:37 AM 46.7100 11.1090 134° Southeast 497 572 37,000  Level FlightAware ADS-B
Sun 06:56:22 AM 46.6410 11.2170 133° Southeast 497 572 37,000  Level FlightAware ADS-B
Sun 06:57:22 AM 46.5370 11.3770 133° Southeast 498 573 37,000  Level FlightAware ADS-B
Sun 06:58:02 AM 46.4730 11.4750 133° Southeast 499 574 37,000  Level FlightAware ADS-B
Sun 06:58:57 AM 46.3850 11.6070 134° Southeast 507 583 37,000  Level FlightAware ADS-B
Sun 06:59:22 AM 46.3480 11.6630 134° Southeast 507 583 37,000  Level FlightAware ADS-B
Sun 07:00:22 AM 46.2440 11.8180 134° Southeast 509 586 37,000  Level FlightAware ADS-B
Sun 07:01:42 AM 46.1110 12.0180 134° Southeast 509 586 37,000  Level FlightAware ADS-B
Sun 07:02:22 AM 46.0520 12.1110 132° Southeast 509 586 37,000  Level FlightAware ADS-B
Sun 07:03:02 AM 45.9900 12.2100 132° Southeast 506 582 37,000  Level FlightAware ADS-B
Sun 07:03:57 AM 45.9030 12.3460 133° Southeast 502 578 37,000  Level FlightAware ADS-B
Sun 07:05:22 AM 45.7680 12.5530 133° Southeast 502 578 37,000  Level FlightAware ADS-B
Sun 07:05:27 AM 45.7610 12.5650 130° Southeast 502 578 37,000  Level FlightAware ADS-B
Sun 07:06:37 AM 45.6500 12.7350 133° Southeast 501 577 37,000  Level FlightAware ADS-B
Sun 07:07:02 AM 45.6150 12.7880 133° Southeast 500 575 37,000  Level FlightAware ADS-B
Sun 07:09:00 AM 45.4689 13.1351 121° Southeast  Level Estimated
Sun 07:09:02 AM 45.4210 13.0820 121° Southeast 496 571 37,000  Level FlightAware ADS-B
Sun 07:09:42 AM 45.3550 13.1830 133° Southeast 496 571 37,000  Level FlightAware ADS-B
Sun 07:10:22 AM 45.2950 13.2710 134° Southeast 503 579 37,000  Level FlightAware ADS-B
Sun 07:10:52 AM 45.2520 13.3410 131° Southeast 499 574 37,000  Level FlightAware ADS-B
Sun 07:12:57 AM 45.0580 13.6730 121° Southeast 504 580 37,000  Level FlightAware ADS-B
Sun 07:13:00 AM 45.0929 13.7146 121° Southeast  Level Estimated
Sun 07:13:42 AM 44.9930 13.7880 129° Southeast 503 579 37,000  Level FlightAware ADS-B
Sun 07:14:32 AM 44.9180 13.9190 129° Southeast 508 585 37,000  Level FlightAware ADS-B
Sun 07:15:02 AM 44.8760 13.9940 128° Southeast 508 585 37,000  Level FlightAware ADS-B
Sun 07:15:42 AM 44.8200 14.0910 129° Southeast 507 583 37,000  Level FlightAware ADS-B
Sun 07:16:32 AM 44.7450 14.2220 129° Southeast 506 582 37,000  Level FlightAware ADS-B
Sun 07:16:57 AM 44.7070 14.2880 129° Southeast 506 582 37,000  Level FlightAware ADS-B
Sun 07:17:37 AM 44.6530 14.3800 130° Southeast 506 582 37,000  Level FlightAware ADS-B
Sun 07:18:17 AM 44.5870 14.4920 130° Southeast 506 582 37,000 212 Level FlightAware ADS-B
Sun 07:19:02 AM 44.5210 14.6060 129° Southeast 508 585 37,300 632 Climbing FlightAware ADS-B
Sun 07:19:52 AM 44.4480 14.7310 129° Southeast 510 587 38,000 800 Climbing FlightAware ADS-B
Sun 07:20:32 AM 44.3840 14.8390 130° Southeast 513 590 38,500 738 Climbing FlightAware ADS-B
Sun 07:20:57 AM 44.3530 14.8990 126° Southeast 512 589 38,800 286 Climbing FlightAware ADS-B
Sun 07:22:17 AM 44.2430 15.1180 125° Southeast 519 597 39,000 77 Climbing FlightAware ADS-B
Sun 07:22:32 AM 44.2170 15.1670 127° Southeast 39,000  Level FlightAware ADS-B
Sun 07:23:32 AM 44.1390 15.3180 126° Southeast 517 595 39,000  Level FlightAware ADS-B
Sun 07:24:12 AM 44.0820 15.4260 126° Southeast 516 594 39,000  Level FlightAware ADS-B
Sun 07:24:42 AM 44.0360 15.5180 125° Southeast 514 592 39,000  Level FlightAware ADS-B
Sun 07:25:22 AM 43.9820 15.6220 126° Southeast 511 588 39,000  Level FlightAware ADS-B
Sun 07:26:02 AM 43.9260 15.7310 125° Southeast 510 587 39,000  Level FlightAware ADS-B
Sun 07:26:52 AM 43.8590 15.8620 125° Southeast 507 583 39,000  Level FlightAware ADS-B
Sun 07:27:32 AM 43.8050 15.9650 126° Southeast 510 587 39,000  Level FlightAware ADS-B
Sun 07:28:37 AM 43.7150 16.1370 126° Southeast 510 587 39,000  Level FlightAware ADS-B
Sun 07:29:27 AM 43.6430 16.2740 126° Southeast 510 587 39,000  Level FlightAware ADS-B
Sun 07:30:17 AM 43.5770 16.3980 126° Southeast 506 582 39,000  Level FlightAware ADS-B
Sun 07:30:57 AM 43.5170 16.5140 125° Southeast 507 583 39,000  Level FlightAware ADS-B
Sun 07:31:32 AM 43.4710 16.6010 126° Southeast 507 583 39,000  Level FlightAware ADS-B
Sun 07:31:57 AM 43.4360 16.6640 127° Southeast 507 583 39,000  Level FlightAware ADS-B
Sun 07:33:07 AM 43.3380 16.8480 126° Southeast 513 590 39,000  Level FlightAware ADS-B
Sun 07:34:02 AM 43.2570 17.0000 126° Southeast 514 592 39,000  Level FlightAware ADS-B
Sun 07:34:37 AM 43.2080 17.0920 126° Southeast 515 593 39,000  Level FlightAware ADS-B
Sun 07:35:12 AM 43.1570 17.1860 127° Southeast 516 594 39,000  Level FlightAware ADS-B
Sun 07:35:57 AM 43.0900 17.3070 127° Southeast 516 594 39,000  Level FlightAware ADS-B
Sun 07:36:32 AM 43.0420 17.3960 126° Southeast 518 596 39,000  Level FlightAware ADS-B
Sun 07:37:02 AM 43.0010 17.4720 126° Southeast 518 596 39,000  Level FlightAware ADS-B
Sun 07:37:42 AM 42.9410 17.5790 127° Southeast 518 596 39,000  Level FlightAware ADS-B
Sun 07:39:27 AM 42.7880 17.8560 127° Southeast 518 596 39,000  Level FlightAware ADS-B
Sun 07:40:07 AM 42.7340 17.9550 127° Southeast 518 596 39,000  Level FlightAware ADS-B
Sun 07:40:47 AM 42.6790 18.0530 127° Southeast 519 597 39,000  Level FlightAware ADS-B
Sun 07:41:22 AM 42.6280 18.1430 128° Southeast 519 597 39,000  Level FlightAware ADS-B
Sun 07:42:07 AM 42.5600 18.2620 128° Southeast 517 595 39,000  Level FlightAware ADS-B
Sun 07:42:42 AM 42.4990 18.3510 133° Southeast 514 592 39,000  Level FlightAware ADS-B
Sun 07:43:22 AM 42.4310 18.4420 135° Southeast 514 592 39,000  Level FlightAware ADS-B
Sun 07:44:12 AM 42.3480 18.5560 135° Southeast 515 593 39,000  Level FlightAware ADS-B
Sun 07:44:52 AM 42.2800 18.6470 135° Southeast 516 594 39,000  Level FlightAware ADS-B
Sun 07:45:52 AM 42.1780 18.7830 135° Southeast 517 595 39,000  Level FlightAware ADS-B
Sun 07:46:17 AM 42.1400 18.8320 136° Southeast 518 596 39,000  Level FlightAware ADS-B
Sun 07:47:12 AM 42.0400 18.9640 136° Southeast 519 597 39,000  Level FlightAware ADS-B
Sun 07:47:52 AM 41.9720 19.0550 135° Southeast 519 597 39,000  Level FlightAware ADS-B
Sun 07:48:37 AM 41.8990 19.1510 136° Southeast 519 597 39,000  Level FlightAware ADS-B
Sun 07:49:52 AM 41.7680 19.3190 136° Southeast 518 596 39,000  Level FlightAware ADS-B
Sun 07:50:12 AM 41.7290 19.3670 137° Southeast 518 596 39,000  Level FlightAware ADS-B
Sun 07:51:02 AM 41.6460 19.4760 136° Southeast 517 595 39,000  Level FlightAware ADS-B
Sun 07:52:27 AM 41.5020 19.6620 136° Southeast 516 594 39,000  Level FlightAware ADS-B
Sun 07:52:57 AM 41.4480 19.7290 137° Southeast 516 594 39,000  Level FlightAware ADS-B
Sun 07:53:52 AM 41.3510 19.8520 136° Southeast 517 595 39,000  Level FlightAware ADS-B
Sun 07:54:27 AM 41.2950 19.9220 137° Southeast 517 595 39,000  Level FlightAware ADS-B
Sun 07:54:57 AM 41.2400 19.9910 137° Southeast 518 596 39,000  Level FlightAware ADS-B
Sun 07:55:37 AM 41.1700 20.0790 137° Southeast 518 596 39,000  Level FlightAware ADS-B
Sun 07:56:57 AM 41.0320 20.2510 137° Southeast 519 597 39,000  Level FlightAware ADS-B
Sun 07:58:57 AM 40.8200 20.5100 123° Southeast 516 594 39,000  Level FlightAware ADS-B
Sun 07:59:00 AM 40.8699 20.5808 123° Southeast  Level Estimated
Sun 07:59:37 AM 40.7490 20.6000 136° Southeast 515 593 39,000  Level FlightAware ADS-B
Sun 08:00:12 AM 40.6890 20.6730 137° Southeast 515 593 39,000  Level FlightAware ADS-B
Sun 08:01:42 AM 40.5380 20.8570 137° Southeast 510 587 39,000  Level FlightAware ADS-B
Sun 08:02:52 AM 40.4140 21.0080 137° Southeast 511 588 39,000  Level FlightAware ADS-B
Sun 08:03:22 AM 40.3590 21.0740 138° Southeast 512 589 39,000  Level FlightAware ADS-B
Sun 08:04:07 AM 40.2830 21.1650 138° Southeast 510 587 39,000  Level FlightAware ADS-B
Sun 08:04:37 AM 40.2300 21.2300 137° Southeast 508 585 39,000  Level FlightAware ADS-B
Sun 08:07:00 AM 40.0437 21.6106 123° Southeast  Level Estimated
Sun 08:07:27 AM 39.9260 21.5910 123° Southeast 513 590 39,000  Level FlightAware ADS-B
Sun 08:08:02 AM 39.8670 21.6580 139° Southeast 512 589 39,000  Level FlightAware ADS-B
Sun 08:08:32 AM 39.8170 21.7120 140° Southeast 513 590 39,000  Level FlightAware ADS-B
Sun 08:09:12 AM 39.7460 21.7930 139° Southeast 514 592 39,000  Level FlightAware ADS-B
Sun 08:10:07 AM 39.6450 21.9060 139° Southeast 514 592 39,000  Level FlightAware ADS-B
Sun 08:10:52 AM 39.5600 22.0000 140° Southeast 516 594 39,000  Level FlightAware ADS-B
Sun 08:11:47 AM 39.4610 22.1110 139° Southeast 512 589 39,000  Level FlightAware ADS-B
Sun 08:12:32 AM 39.3780 22.2020 140° Southeast 510 587 39,000  Level FlightAware ADS-B
Sun 08:13:12 AM 39.3060 22.2820 139° Southeast 511 588 39,000  Level FlightAware ADS-B
Sun 08:13:42 AM 39.2520 22.3420 139° Southeast 511 588 39,000  Level FlightAware ADS-B
Sun 08:14:27 AM 39.1700 22.4330 139° Southeast 511 588 39,000  Level FlightAware ADS-B
Sun 08:17:00 AM 38.9760 22.8384 122° Southeast  Level Estimated
Sun 08:17:17 AM 38.8630 22.7660 122° Southeast 512 589 39,000  Level FlightAware ADS-B
Sun 08:17:52 AM 38.7920 22.8440 139° Southeast 520 598 39,000  Level FlightAware ADS-B
Sun 08:18:32 AM 38.7180 22.9230 140° Southeast 520 598 39,000  Level FlightAware ADS-B
Sun 08:18:57 AM 38.6700 22.9750 140° Southeast 521 600 39,000  Level FlightAware ADS-B
Sun 08:19:47 AM 38.5800 23.0720 140° Southeast 522 601 39,000  Level FlightAware ADS-B
Sun 08:20:22 AM 38.5150 23.1420 140° Southeast 521 600 39,000  Level FlightAware ADS-B
Sun 08:20:52 AM 38.4580 23.2030 140° Southeast 522 601 39,000  Level FlightAware ADS-B
Sun 08:21:27 AM 38.3950 23.2700 140° Southeast 523 602 39,000  Level FlightAware ADS-B
Sun 08:22:22 AM 38.2900 23.3810 140° Southeast 521 600 39,000  Level FlightAware ADS-B
Sun 08:22:52 AM 38.2370 23.4380 140° Southeast 521 600 39,000  Level FlightAware ADS-B
Sun 08:23:37 AM 38.1510 23.5280 141° Southeast 521 600 39,000  Level FlightAware ADS-B
Sun 08:24:32 AM 38.0510 23.6340 140° Southeast 522 601 39,000  Level FlightAware ADS-B
Sun 08:25:02 AM 37.9960 23.6900 141° Southeast 523 602 39,000  Level FlightAware ADS-B
Sun 08:25:37 AM 37.9280 23.7630 140° Southeast 526 605 39,000  Level FlightAware ADS-B
Sun 08:26:07 AM 37.8750 23.8270 136° Southeast 526 605 39,000  Level FlightAware ADS-B
Sun 08:27:02 AM 37.7890 23.9500 131° Southeast 530 610 39,000  Level FlightAware ADS-B
Sun 08:27:37 AM 37.7310 24.0380 130° Southeast 528 608 39,000  Level FlightAware ADS-B
Sun 08:28:12 AM 37.6770 24.1200 130° Southeast 527 606 39,000  Level FlightAware ADS-B
Sun 08:29:12 AM 37.5840 24.2590 130° Southeast 526 605 39,000  Level FlightAware ADS-B
Sun 08:29:52 AM 37.5270 24.3590 126° Southeast 529 609 39,000  Level FlightAware ADS-B
Sun 08:30:22 AM 37.4870 24.4370 123° Southeast 527 606 39,000  Level FlightAware ADS-B
Sun 08:31:12 AM 37.4240 24.5640 122° Southeast 527 606 39,000  Level FlightAware ADS-B
Sun 08:32:07 AM 37.3510 24.7090 122° Southeast 526 605 39,000  Level FlightAware ADS-B
Sun 08:33:02 AM 37.2790 24.8510 122° Southeast 525 604 39,000  Level FlightAware ADS-B
Sun 08:33:42 AM 37.2300 24.9490 122° Southeast 525 604 39,000  Level FlightAware ADS-B
Sun 08:34:22 AM 37.1860 25.0370 122° Southeast 525 604 39,000  Level FlightAware ADS-B
Sun 08:35:32 AM 37.1090 25.1910 122° Southeast 525 604 39,000  Level FlightAware ADS-B
Sun 08:36:12 AM 37.0660 25.2790 121° Southeast 525 604 39,000  Level FlightAware ADS-B
Sun 08:38:00 AM 36.9360 25.5623 120° Southeast  Level Estimated
Sun 08:38:42 AM 36.8410 25.7310 120° Southeast 531 611 39,000  Level FlightAware ADS-B
Sun 08:39:17 AM 36.8010 25.8130 121° Southeast 531 611 39,000  Level FlightAware ADS-B
Sun 08:39:52 AM 36.7520 25.9100 122° Southeast 530 610 39,000  Level FlightAware ADS-B
Sun 08:41:07 AM 36.6550 26.1040 122° Southeast 530 610 39,000  Level FlightAware ADS-B
Sun 08:41:57 AM 36.5850 26.2420 122° Southeast 530 610 39,000  Level FlightAware ADS-B
Sun 08:43:07 AM 36.5010 26.4090 122° Southeast 531 611 39,000  Level FlightAware ADS-B
Sun 08:44:22 AM 36.3990 26.6080 122° Southeast 531 611 39,000  Level FlightAware ADS-B
Sun 08:45:07 AM 36.3460 26.7140 122° Southeast 531 611 39,000  Level FlightAware ADS-B
Sun 08:45:47 AM 36.3020 26.8010 122° Southeast 531 611 39,000  Level FlightAware ADS-B
Sun 08:46:37 AM 36.2460 26.9110 122° Southeast 531 611 39,000  Level FlightAware ADS-B
Sun 08:47:17 AM 36.2020 26.9990 122° Southeast 531 611 39,000  Level FlightAware ADS-B
Sun 08:47:57 AM 36.1580 27.0870 122° Southeast 531 611 39,000  Level FlightAware ADS-B
Sun 08:48:37 AM 36.1130 27.1750 122° Southeast 531 611 39,000  Level FlightAware ADS-B
Sun 08:49:37 AM 36.0470 27.3060 122° Southeast 531 611 39,000  Level FlightAware ADS-B
Sun 08:50:07 AM 36.0140 27.3720 122° Southeast 531 611 39,000  Level FlightAware ADS-B
Sun 08:50:37 AM 35.9810 27.4370 122° Southeast 531 611 39,000  Level FlightAware ADS-B
Sun 08:51:27 AM 35.9250 27.5470 122° Southeast 531 611 39,000  Level FlightAware ADS-B
Sun 08:52:07 AM 35.8810 27.6340 122° Southeast 531 611 39,000  Level FlightAware ADS-B
Sun 08:52:47 AM 35.8370 27.7220 122° Southeast 531 611 39,000  Level FlightAware ADS-B
Sun 08:53:52 AM 35.6350 28.0800 125° Southeast 538 619 39,000  Level FlightAware ADS-B
Sun 08:54:37 AM 35.5690 28.2020 124° Southeast 538 619 39,000  Level FlightAware ADS-B
Sun 08:55:17 AM 35.5130 28.3040 124° Southeast 539 620 39,000  Level FlightAware ADS-B
Sun 08:56:32 AM 35.4120 28.4930 123° Southeast 539 620 39,000  Level FlightAware ADS-B
Sun 08:57:37 AM 35.3310 28.6450 123° Southeast 540 621 39,000  Level FlightAware ADS-B
Sun 08:58:27 AM 35.2520 28.7890 124° Southeast 541 623 39,000  Level FlightAware ADS-B
Sun 08:59:17 AM 35.1820 28.9170 124° Southeast 540 621 39,000  Level FlightAware ADS-B
Sun 09:00:02 AM 35.1210 29.0290 124° Southeast 540 621 39,000  Level FlightAware ADS-B
Sun 09:00:47 AM 35.0680 29.1290 123° Southeast 540 621 39,000  Level FlightAware ADS-B
Sun 09:01:17 AM 35.0330 29.1940 123° Southeast 540 621 39,000  Level FlightAware ADS-B
Sun 09:02:17 AM 34.9640 29.3240 123° Southeast 540 621 39,000  Level FlightAware ADS-B
Sun 09:02:57 AM 34.9180 29.4110 123° Southeast 540 621 39,000  Level FlightAware ADS-B
Sun 09:03:27 AM 34.8830 29.4770 123° Southeast 540 621 39,000  Level FlightAware ADS-B
Sun 09:04:07 AM 34.8370 29.5630 123° Southeast 540 621 39,000  Level FlightAware ADS-B
Sun 09:04:47 AM 34.7900 29.6500 123° Southeast 540 621 39,000  Level FlightAware ADS-B
Sun 09:05:17 AM 34.7560 29.7150 122° Southeast 540 621 39,000  Level FlightAware ADS-B
Sun 09:06:07 AM 34.6980 29.8230 123° Southeast 540 621 39,000  Level FlightAware ADS-B
Sun 09:07:17 AM 34.6170 29.9750 123° Southeast 540 621 39,000  Level FlightAware ADS-B
Sun 09:07:57 AM 34.5710 30.0620 123° Southeast 540 621 39,000  Level FlightAware ADS-B
Sun 09:08:37 AM 34.5240 30.1480 124° Southeast 540 621 39,000  Level FlightAware ADS-B
Sun 09:09:07 AM 34.4900 30.2130 122° Southeast 540 621 39,000  Level FlightAware ADS-B
Sun 09:09:47 AM 34.4430 30.2990 124° Southeast 540 621 39,000 -664 Level FlightAware ADS-B
Sun 09:12:00 AM 34.2762 30.6318 121° Southeast  Level Estimated
Sun 09:13:00 AM 34.2007 30.7815 121° Southeast  Level Estimated
Sun 09:14:00 AM 34.1250 30.9309 121° Southeast  Level Estimated
Sun 09:15:00 AM 34.0491 31.0801 122° Southeast  Level Estimated
Sun 09:16:00 AM 33.9731 31.2290 122° Southeast  Level Estimated
Sun 09:17:00 AM 33.8968 31.3776 122° Southeast  Level Estimated
Sun 09:18:00 AM 33.8204 31.5260 122° Southeast  Level Estimated
Sun 09:19:00 AM 33.7438 31.6741 122° Southeast  Level Estimated
Sun 09:20:00 AM 33.6670 31.8219 122° Southeast  Level Estimated
Sun 09:21:00 AM 33.5901 31.9695 122° Southeast  Level Estimated
Sun 09:22:00 AM 33.5130 32.1168 122° Southeast  Level Estimated
Sun 09:23:00 AM 33.4357 32.2638 122° Southeast  Level Estimated
Sun 09:24:00 AM 33.3582 32.4106 122° Southeast  Level Estimated
Sun 09:25:00 AM 33.2804 32.5574 122° Southeast  Level Estimated
Sun 09:26:00 AM 33.2025 32.7039 122° Southeast  Level Estimated
Sun 09:26:17 AM 33.1390 32.9140 122° Southeast 454 522 27,600  Level FlightAware ADS-B
Sun 09:27:12 AM 33.0840 33.0220 121° Southeast 454 522 27,600 -1,412 Level FlightAware ADS-B
Sun 09:27:42 AM 33.0430 33.0980 123° Southeast 441 507 25,600 -1,600 Descending FlightAware ADS-B
Sun 09:28:27 AM 33.0010 33.1820 121° Southeast 441 507 25,600 -857 Level FlightAware ADS-B
Sun 09:29:27 AM 32.9230 33.3020 128° Southeast 440 506 24,100 -900 Descending FlightAware ADS-B
Sun 09:30:07 AM 32.8830 33.3690 125° Southeast 440 506 24,100 -2,057 Level FlightAware ADS-B
Sun 09:30:37 AM 32.8430 33.4370 125° Southeast 426 490 21,700 -3,800 Descending FlightAware ADS-B
Sun 09:31:07 AM 32.8040 33.5040 125° Southeast 425 489 20,300 -2,325 Descending FlightAware ADS-B
Sun 09:31:57 AM 32.7500 33.5950 125° Southeast 416 479 18,600 -2,171 Descending FlightAware ADS-B
Sun 09:32:52 AM 32.6900 33.6970 125° Southeast 408 470 16,500 -2,280 Descending FlightAware ADS-B
Sun 09:33:37 AM 32.6440 33.7750 125° Southeast 399 459 14,800 -1,933 Descending FlightAware ADS-B
Sun 09:34:22 AM 32.5930 33.8600 125° Southeast 393 452 13,600 -1,575 Descending FlightAware ADS-B
Sun 09:34:57 AM 32.5550 33.9210 126° Southeast 386 444 12,700 -1,440 Descending FlightAware ADS-B
Sun 09:35:37 AM 32.5150 33.9880 125° Southeast 382 440 11,800 -1,385 Descending FlightAware ADS-B
Sun 09:36:02 AM 32.4900 34.0310 125° Southeast 378 435 11,200 -1,292 Descending FlightAware ADS-B
Sun 09:36:42 AM 32.4500 34.0970 126° Southeast 364 419 10,400 -706 Descending FlightAware ADS-B
Sun 09:37:27 AM 32.4110 34.1620 125° Southeast 324 373 10,200 -450 Descending FlightAware ADS-B
Sun 09:38:42 AM 32.3490 34.2640 126° Southeast 285 328 9,500 -709 Descending FlightAware ADS-B
Sun 09:39:17 AM 32.3230 34.3070 126° Southeast 282 325 8,900 -923 Descending FlightAware ADS-B
Sun 09:39:47 AM 32.3020 34.3420 125° Southeast 279 321 8,500 -320 Descending FlightAware ADS-B
Sun 09:40:32 AM 32.2710 34.3940 125° Southeast 279 321 8,500  Level FlightAware ADS-B
Sun 09:40:42 AM 32.2650 34.4040 125° Southeast 279 321 8,500  Level FlightAware ADS-B
Sun 09:41:22 AM 32.2400 34.4470 124° Southeast 279 321 8,500  Level FlightAware ADS-B
Sun 09:41:42 AM 32.2270 34.4680 126° Southeast 279 321 8,500  Level FlightAware ADS-B
Sun 09:44:00 AM 32.0494 34.8021 140° Southeast  Level Estimated
Sun 09:45:00 AM 32.0000 34.8667 140° Southeast  Level FlightAware Approximate
Sun 09:46:00 AM 32.0095 34.8769 140° Southeast  Level Estimated
Sun 09:47:00 AM 32.0095 34.8769 140° Southeast  Level Estimated
Sun 09:48:00 AM 32.0095 34.8769 140° Southeast  Level Estimated
Sun 09:49:00 AM 32.0095 34.8769 140° Southeast  Level Estimated
Sun 09:50:00 AM 32.0095 34.8769 140° Southeast  Level Estimated
Sun 09:51:00 AM 32.0095 34.8769 140° Southeast  Level Estimated
Sun 09:52:00 AM 32.0095 34.8769 140° Southeast  Level Estimated

Login

Don't have an account? Register now (free) for customized features, flight alerts, and more!